Time;durP1;ratioP1;P1;durP2;ratioP2;P2;SDS_P1;SDS_P2;PMS_P1;PMS_P2;Temp;Humidity;BMP_temperature;BMP_pressure;BME280_temperature;BME280_humidity;BME280_pressure;Samples;Min_cycle;Max_cycle;Signal;HPM_P1;HPM_P2
2022/10/09 00:00:00;;;;;;;12.53;7.20;;;11.60;99.90;;;;;;4754394;30;20204;-80
2022/10/09 00:02:36;;;;;;;14.27;7.67;;;11.60;99.90;;;;;;4754352;30;20672;-81
2022/10/09 00:05:29;;;;;;;11.90;7.00;;;11.60;99.90;;;;;;4768904;30;20208;-79
2022/10/09 00:07:56;;;;;;;11.57;7.10;;;11.60;99.90;;;;;;4771629;30;20308;-79
2022/10/09 00:10:25;;;;;;;13.27;7.07;;;11.70;99.90;;;;;;4772736;30;20232;-79
2022/10/09 00:12:52;;;;;;;12.03;6.20;;;11.60;99.90;;;;;;4773147;30;20258;-80
2022/10/09 00:15:19;;;;;;;13.83;6.17;;;11.60;99.90;;;;;;4772351;30;20610;-80
2022/10/09 00:17:47;;;;;;;10.33;6.17;;;11.70;99.90;;;;;;4757971;30;20232;-78
2022/10/09 00:20:14;;;;;;;14.27;6.57;;;11.60;99.90;;;;;;4772619;30;20235;-79
2022/10/09 00:22:44;;;;;;;10.50;5.73;;;11.60;99.90;;;;;;4758367;30;20300;-80
2022/10/09 00:25:12;;;;;;;10.50;5.97;;;11.70;99.90;;;;;;4773587;30;20193;-80
2022/10/09 00:27:39;;;;;;;12.60;5.83;;;11.60;99.90;;;;;;4772504;30;20250;-80
2022/10/09 00:30:06;;;;;;;11.13;6.03;;;11.70;99.90;;;;;;4773677;30;20205;-79
2022/10/09 00:32:33;;;;;;;7.37;5.20;;;11.60;99.90;;;;;;4772290;30;20674;-81
2022/10/09 00:35:00;;;;;;;10.77;5.70;;;11.70;99.90;;;;;;4773312;30;20224;-80
2022/10/09 00:37:52;;;;;;;11.83;5.93;;;11.70;99.90;;;;;;4758278;30;20551;-80
2022/10/09 00:40:19;;;;;;;8.67;5.70;;;11.60;99.90;;;;;;4773166;30;20213;-80
2022/10/09 00:43:42;;;;;;;9.20;5.60;;;11.60;99.90;;;;;;4735802;30;20740;-80
2022/10/09 00:46:47;;;;;;;11.73;5.80;;;11.70;99.90;;;;;;4721100;30;20306;-80
2022/10/09 00:49:35;;;;;;;11.17;5.40;;;11.50;99.90;;;;;;4772353;30;20209;-79
2022/10/09 00:52:06;;;;;;;9.30;5.47;;;11.50;99.90;;;;;;4757699;30;20663;-79
2022/10/09 00:54:36;;;;;;;10.60;5.17;;;11.40;99.90;;;;;;4772978;30;20560;-78
2022/10/09 00:57:03;;;;;;;10.50;5.37;;;11.40;99.90;;;;;;4771732;30;20216;-80
2022/10/09 00:59:30;;;;;;;11.07;5.63;;;11.30;99.90;;;;;;4772046;30;20619;-79
2022/10/09 01:01:57;;;;;;;10.27;5.40;;;11.20;99.90;;;;;;4756636;30;20249;-78
2022/10/09 01:04:31;;;;;;;8.50;5.47;;;11.10;99.90;;;;;;4757106;30;20648;-80
2022/10/09 01:07:22;;;;;;;8.97;5.07;;;11.10;99.90;;;;;;4771944;30;20236;-79
2022/10/09 01:09:58;;;;;;;10.73;5.53;;;11.00;99.90;;;;;;4756705;30;20213;-79
2022/10/09 01:20:08;;;;;;;9.73;6.00;;;11.10;99.90;;;;;;2957457;27;20319;-78
2022/10/09 01:23:02;;;;;;;12.87;6.33;;;11.10;99.90;;;;;;4790694;29;20654;-80
2022/10/09 01:26:06;;;;;;;14.37;6.80;;;11.10;99.90;;;;;;4734869;30;20580;-81
2022/10/09 01:28:58;;;;;;;11.17;6.20;;;11.10;99.90;;;;;;4720481;30;20237;-81
2022/10/09 01:31:43;;;;;;;10.73;6.60;;;11.10;99.90;;;;;;4720243;30;20229;-81
2022/10/09 01:34:15;;;;;;;11.97;6.83;;;11.10;99.90;;;;;;4734957;30;20207;-79
2022/10/09 01:36:56;;;;;;;12.43;7.00;;;11.00;99.90;;;;;;4734536;30;20223;-84
2022/10/09 01:39:25;;;;;;;13.57;7.07;;;10.90;99.90;;;;;;4735033;30;20214;-81
2022/10/09 01:41:53;;;;;;;13.00;6.57;;;10.90;99.90;;;;;;4719929;30;20234;-81
2022/10/09 01:44:33;;;;;;;11.20;7.07;;;10.90;99.90;;;;;;4720049;30;20218;-82
2022/10/09 01:47:33;;;;;;;14.00;7.50;;;10.80;99.90;;;;;;4846511;24;20284;-80
2022/10/09 01:54:42;;;;;;;15.60;7.50;;;10.80;99.90;;;;;;4819609;24;20239;-80
2022/10/09 01:57:22;;;;;;;12.77;7.83;;;10.70;99.90;;;;;;4791514;29;20211;-78
2022/10/09 01:59:51;;;;;;;11.93;7.23;;;10.60;99.90;;;;;;4777428;29;20211;-79
2022/10/09 02:02:20;;;;;;;12.47;7.23;;;10.50;99.90;;;;;;4791346;29;20235;-80
2022/10/09 02:04:54;;;;;;;13.50;7.07;;;10.50;99.90;;;;;;4791617;29;20204;-81
2022/10/09 02:08:04;;;;;;;13.23;6.70;;;10.50;99.90;;;;;;4791587;29;20200;-80
2022/10/09 02:13:17;;;;;;;15.67;6.97;;;10.40;99.90;;;;;;4887490;24;20236;-80
2022/10/09 02:17:00;;;;;;;11.10;7.43;;;10.30;99.90;;;;;;4773426;30;20204;-80
2022/10/09 02:20:32;;;;;;;14.43;7.60;;;10.30;99.90;;;;;;4780849;24;20246;-81
2022/10/09 02:23:03;;;;;;;15.60;7.43;;;10.30;99.90;;;;;;4788264;30;20192;-81
2022/10/09 02:25:30;;;;;;;14.40;7.40;;;10.20;99.90;;;;;;4773792;29;20204;-81
2022/10/09 02:27:57;;;;;;;12.37;7.53;;;10.10;99.90;;;;;;4787796;30;20207;-80
2022/10/09 02:30:43;;;;;;;16.83;7.17;;;10.20;99.90;;;;;;4787506;29;20235;-81
2022/10/09 02:33:10;;;;;;;14.70;6.90;;;10.10;99.90;;;;;;4787716;29;20232;-82
2022/10/09 02:41:56;;;;;;;15.40;8.00;;;9.90;99.90;;;;;;4732626;30;20241;-81
2022/10/09 02:47:15;;;;;;;17.70;8.23;;;9.70;99.90;;;;;;4936235;24;20246;-81
2022/10/09 02:49:42;;;;;;;16.80;8.10;;;9.60;99.90;;;;;;4768431;30;20733;-81
2022/10/09 02:52:09;;;;;;;17.33;8.43;;;9.70;99.90;;;;;;4769724;30;20582;-80
2022/10/09 02:54:39;;;;;;;14.57;7.93;;;9.60;99.90;;;;;;4779594;24;20239;-80
2022/10/09 02:57:06;;;;;;;19.47;9.40;;;9.60;99.90;;;;;;4806529;29;20200;-81
2022/10/09 03:05:35;;;;;;;15.10;8.10;;;9.50;99.90;;;;;;4715638;24;20236;-79
2022/10/09 03:16:47;;;;;;;;;;;;;;;;;;;;;
2022/10/09 03:30:45;;;;;;;18.77;9.80;;;9.40;99.90;;;;;;5358496;24;20597;-81
2022/10/09 03:36:03;;;;;;;17.03;10.13;;;9.40;99.90;;;;;;3053897;24;20247;-80
2022/10/09 03:38:30;;;;;;;15.77;9.60;;;9.50;99.90;;;;;;4957304;24;20235;-81
2022/10/09 03:41:59;;;;;;;19.63;10.13;;;9.40;99.90;;;;;;4806074;29;20227;-81
2022/10/09 03:49:54;;;;;;;19.47;10.27;;;9.40;99.90;;;;;;4814540;24;20284;-81
2022/10/09 03:52:39;;;;;;;16.07;9.00;;;9.60;99.90;;;;;;4789409;29;20252;-80
2022/10/09 03:58:17;;;;;;;18.23;9.30;;;9.30;99.90;;;;;;4963982;24;20645;-81
2022/10/09 04:00:45;;;;;;;18.43;9.17;;;9.40;99.90;;;;;;4807760;24;20258;-77
2022/10/09 04:03:12;;;;;;;17.37;9.67;;;9.30;99.90;;;;;;4789653;29;20682;-79
2022/10/09 04:05:39;;;;;;;14.93;9.83;;;9.30;99.90;;;;;;4789547;29;20200;-80
2022/10/09 04:08:38;;;;;;;16.03;9.47;;;9.40;99.90;;;;;;4805963;29;20207;-81
2022/10/09 04:11:38;;;;;;;18.07;9.97;;;9.30;99.90;;;;;;4744801;24;20238;-81
2022/10/09 04:14:05;;;;;;;17.83;9.77;;;9.30;99.90;;;;;;4753504;30;20216;-80
2022/10/09 04:16:32;;;;;;;19.93;10.60;;;9.40;99.90;;;;;;4753847;30;20205;-80
2022/10/09 04:18:59;;;;;;;16.97;10.47;;;9.40;99.90;;;;;;4768574;30;20291;-82
2022/10/09 04:21:32;;;;;;;18.63;10.97;;;9.50;99.90;;;;;;4770058;30;20220;-80
2022/10/09 04:23:59;;;;;;;18.97;11.50;;;9.50;99.90;;;;;;4770054;30;20212;-80
2022/10/09 04:26:30;;;;;;;19.60;12.07;;;9.30;99.90;;;;;;4826694;24;20243;-81
2022/10/09 04:32:38;;;;;;;18.60;11.33;;;9.50;99.90;;;;;;4789668;29;20203;-83
2022/10/09 04:35:14;;;;;;;20.10;12.07;;;9.40;99.90;;;;;;4789642;29;20248;-82
2022/10/09 04:38:04;;;;;;;24.23;11.90;;;9.40;99.90;;;;;;4789022;29;20213;-82
2022/10/09 04:40:35;;;;;;;19.13;11.87;;;9.30;99.90;;;;;;4996597;24;20562;-80
2022/10/09 04:43:02;;;;;;;18.63;11.80;;;9.40;99.90;;;;;;4753884;30;20233;-82
2022/10/09 04:45:52;;;;;;;19.27;11.57;;;9.40;99.90;;;;;;4788150;24;20248;-80
2022/10/09 04:48:22;;;;;;;18.90;11.17;;;9.40;99.90;;;;;;4768343;30;20304;-80
2022/10/09 04:50:49;;;;;;;20.13;12.57;;;9.50;99.90;;;;;;4767752;30;20231;-81
2022/10/09 04:53:16;;;;;;;16.77;10.43;;;9.70;99.90;;;;;;4769280;30;20228;-80
2022/10/09 04:55:43;;;;;;;19.70;11.00;;;9.50;99.90;;;;;;4771632;30;20201;-80
2022/10/09 04:58:12;;;;;;;16.93;11.43;;;9.60;99.90;;;;;;4772806;30;20200;-79
2022/10/09 05:00:48;;;;;;;20.00;10.53;;;9.50;99.90;;;;;;4771598;30;20213;-80
2022/10/09 05:03:15;;;;;;;22.43;10.50;;;9.40;99.90;;;;;;4771476;30;20243;-82
2022/10/09 05:05:41;;;;;;;20.07;10.83;;;9.40;99.90;;;;;;4773166;30;20619;-81
2022/10/09 05:08:08;;;;;;;16.33;10.70;;;9.50;99.90;;;;;;4771382;30;20238;-80
2022/10/09 05:10:41;;;;;;;18.20;10.83;;;9.30;99.90;;;;;;4772315;30;20216;-80
2022/10/09 05:13:08;;;;;;;16.07;9.90;;;9.40;99.90;;;;;;4753612;30;20232;-79
2022/10/09 05:15:38;;;;;;;16.70;10.10;;;9.40;99.90;;;;;;4754406;30;20629;-79
2022/10/09 05:18:05;;;;;;;16.47;10.27;;;9.50;99.90;;;;;;4753179;30;20248;-80
2022/10/09 05:23:26;;;;;;;17.07;9.77;;;9.40;99.90;;;;;;4912846;24;20617;-80
2022/10/09 05:28:58;;;;;;;15.23;9.60;;;9.30;99.90;;;;;;4801918;24;20275;-80
2022/10/09 05:31:28;;;;;;;16.87;10.80;;;9.40;99.90;;;;;;4774654;30;20200;-81
2022/10/09 05:33:58;;;;;;;15.90;9.90;;;9.30;99.90;;;;;;4790397;30;20227;-81
2022/10/09 05:36:26;;;;;;;21.47;9.97;;;9.30;99.90;;;;;;4790052;29;20208;-80
2022/10/09 05:41:33;;;;;;;18.20;10.50;;;9.30;99.90;;;;;;4789129;30;20248;-82
2022/10/09 05:47:00;;;;;;;18.00;11.73;;;9.30;99.90;;;;;;4783129;27;20323;-81
2022/10/09 05:49:27;;;;;;;20.77;12.27;;;9.30;99.90;;;;;;4788583;29;20204;-81
2022/10/09 05:51:54;;;;;;;19.03;12.27;;;9.30;99.90;;;;;;4848821;24;20240;-78
2022/10/09 05:54:21;;;;;;;17.37;11.87;;;9.30;99.90;;;;;;4791547;29;20210;-78
2022/10/09 05:56:48;;;;;;;19.50;11.60;;;9.30;99.90;;;;;;4791482;29;20565;-77
2022/10/09 05:59:20;;;;;;;17.37;11.13;;;9.30;99.90;;;;;;4791609;29;20310;-77
2022/10/09 06:01:50;;;;;;;18.10;11.10;;;9.40;99.90;;;;;;4791633;29;20629;-76
2022/10/09 06:04:19;;;;;;;19.87;10.70;;;9.40;99.90;;;;;;4807638;29;20533;-77
2022/10/09 06:06:47;;;;;;;17.27;11.00;;;9.30;99.90;;;;;;4807255;29;20248;-78
2022/10/09 06:09:18;;;;;;;17.40;11.03;;;9.40;99.90;;;;;;4837035;24;20223;-78
2022/10/09 06:11:45;;;;;;;19.63;11.40;;;9.40;99.90;;;;;;4767724;30;20260;-78
2022/10/09 06:20:30;;;;;;;17.33;10.73;;;9.50;99.90;;;;;;3973071;27;20239;-81
2022/10/09 06:26:58;;;;;;;15.47;9.83;;;9.70;99.90;;;;;;4680116;30;20605;-80
2022/10/09 06:29:45;;;;;;;18.77;9.87;;;9.80;99.90;;;;;;4771085;24;20255;-79
2022/10/09 06:32:12;;;;;;;15.17;9.33;;;9.70;99.90;;;;;;4773050;30;20199;-80
2022/10/09 06:34:42;;;;;;;14.97;9.70;;;9.70;99.90;;;;;;4773396;30;20607;-81
2022/10/09 06:37:09;;;;;;;15.37;9.70;;;9.70;99.90;;;;;;4772776;30;20212;-80
2022/10/09 06:39:36;;;;;;;13.40;9.43;;;9.60;99.90;;;;;;4773288;30;20204;-80
2022/10/09 06:42:22;;;;;;;17.07;9.43;;;9.80;99.90;;;;;;4763629;24;20287;-80
2022/10/09 06:44:49;;;;;;;17.37;10.20;;;9.80;99.90;;;;;;4790530;29;20207;-79
2022/10/09 06:47:16;;;;;;;13.47;9.00;;;9.80;99.90;;;;;;4806782;29;20638;-80
2022/10/09 06:49:43;;;;;;;15.23;9.13;;;9.90;99.90;;;;;;4775518;29;20215;-77
2022/10/09 07:02:24;;;;;;;12.33;7.00;;;10.10;99.90;;;;;;5451390;24;20240;-78
2022/10/09 07:12:58;;;;;;;14.77;7.50;;;10.10;99.90;;;;;;499703;27;20686;-83
2022/10/09 07:23:15;;;;;;;13.90;9.73;;;10.10;99.90;;;;;;5151157;24;20682;-84
2022/10/09 07:37:13;;;;;;;16.27;10.53;;;10.20;99.90;;;;;;5365178;24;20274;-83
2022/10/09 07:52:37;;;;;;;15.23;10.87;;;10.70;99.90;;;;;;4924065;24;20243;-82
2022/10/09 08:01:06;;;;;;;17.03;9.73;;;10.60;99.90;;;;;;4793640;29;20218;-81
2022/10/09 08:06:42;;;;;;;14.50;8.73;;;10.60;99.90;;;;;;4862787;24;20342;-81
2022/10/09 08:12:42;;;;;;;13.63;8.80;;;10.60;99.90;;;;;;4970726;24;20706;-82
2022/10/09 08:35:49;;;;;;;16.43;8.43;;;10.70;99.90;;;;;;4612668;24;20243;-82
2022/10/09 08:38:17;;;;;;;11.27;7.67;;;10.80;99.90;;;;;;4809337;29;20192;-79
2022/10/09 08:41:31;;;;;;;14.07;8.20;;;10.70;99.90;;;;;;4793273;29;20682;-79
2022/10/09 08:44:12;;;;;;;12.73;8.60;;;10.80;99.90;;;;;;4793296;29;20235;-78
2022/10/09 08:46:55;;;;;;;13.20;8.13;;;10.50;99.90;;;;;;4792711;29;20749;-79
2022/10/09 08:49:36;;;;;;;12.80;8.33;;;10.60;99.90;;;;;;4808986;29;20203;-80
2022/10/09 08:52:12;;;;;;;13.30;8.10;;;10.70;99.90;;;;;;4809128;29;20203;-78
2022/10/09 08:54:39;;;;;;;12.10;8.17;;;10.80;99.90;;;;;;4808870;29;20209;-78
2022/10/09 08:57:12;;;;;;;15.27;7.83;;;10.80;99.90;;;;;;4792056;29;20199;-78
2022/10/09 08:59:39;;;;;;;11.90;8.20;;;10.80;99.90;;;;;;4798460;29;20210;-79
2022/10/09 09:02:06;;;;;;;11.73;7.80;;;10.90;99.90;;;;;;4810544;29;20317;-79
2022/10/09 09:15:27;;;;;;;12.77;7.63;;;11.10;99.90;;;;;;4769659;30;20221;-78
2022/10/09 09:18:07;;;;;;;12.67;8.10;;;11.00;99.90;;;;;;4756749;30;20209;-79
2022/10/09 09:21:05;;;;;;;11.63;7.70;;;11.00;99.90;;;;;;4771897;30;20196;-78
2022/10/09 09:27:30;;;;;;;9.27;6.40;;;11.20;99.90;;;;;;4737525;30;20213;-80
2022/10/09 09:30:19;;;;;;;9.27;6.40;;;11.30;99.90;;;;;;4975706;24;20239;-79
2022/10/09 09:33:10;;;;;;;10.40;6.23;;;11.40;99.90;;;;;;4754734;30;20699;-79
2022/10/09 09:36:37;;;;;;;9.67;6.60;;;11.50;99.90;;;;;;4724430;30;20211;-80
2022/10/09 09:39:04;;;;;;;11.17;6.67;;;11.60;99.90;;;;;;4769805;30;20216;-78
2022/10/09 09:41:54;;;;;;;8.67;6.17;;;11.60;99.90;;;;;;4770900;30;20224;-78
2022/10/09 09:48:49;;;;;;;11.30;6.30;;;11.90;99.90;;;;;;4839456;24;20250;-85
2022/10/09 09:58:33;;;;;;;10.33;6.53;;;11.70;99.90;;;;;;4901179;24;20244;-78
2022/10/09 10:01:43;;;;;;;9.67;6.93;;;11.70;99.90;;;;;;4797451;24;20247;-78
2022/10/09 10:07:05;;;;;;;12.23;7.03;;;11.40;99.90;;;;;;4713698;27;20255;-79
2022/10/09 10:09:32;;;;;;;13.70;8.07;;;11.50;99.90;;;;;;4789915;29;20259;-81
2022/10/09 10:12:02;;;;;;;12.20;7.67;;;11.70;99.90;;;;;;4788314;30;20215;-80
2022/10/09 10:14:30;;;;;;;11.37;7.60;;;11.80;99.90;;;;;;4788271;30;20323;-85
2022/10/09 10:17:01;;;;;;;12.50;7.47;;;11.80;99.90;;;;;;4789279;30;20200;-81
2022/10/09 10:19:37;;;;;;;11.20;7.80;;;11.80;99.90;;;;;;4789495;29;20204;-76
2022/10/09 10:22:28;;;;;;;10.53;7.73;;;11.70;99.90;;;;;;4773156;30;20251;-80
2022/10/09 10:25:05;;;;;;;8.90;6.80;;;11.70;99.90;;;;;;4773152;30;20215;-80
2022/10/09 10:28:16;;;;;;;11.03;6.93;;;11.80;99.90;;;;;;4773494;30;20218;-80
2022/10/09 10:30:43;;;;;;;9.33;7.13;;;11.80;99.90;;;;;;4789511;30;20257;-80
2022/10/09 10:33:25;;;;;;;9.90;6.90;;;11.90;99.90;;;;;;4789697;30;20291;-79
2022/10/09 10:35:54;;;;;;;9.67;6.67;;;12.00;99.90;;;;;;4772497;29;20208;-74
2022/10/09 10:38:54;;;;;;;10.20;7.57;;;11.90;99.90;;;;;;4780368;29;20261;-79
2022/10/09 10:41:34;;;;;;;12.97;7.40;;;11.90;99.90;;;;;;4786552;29;20208;-82
2022/10/09 10:45:12;;;;;;;10.47;7.50;;;11.90;99.90;;;;;;4783631;29;20228;-84
2022/10/09 10:48:03;;;;;;;11.77;7.37;;;11.80;99.90;;;;;;4732282;30;20228;-78
2022/10/09 10:50:39;;;;;;;10.43;7.17;;;11.90;99.90;;;;;;4751244;30;20205;-80
2022/10/09 10:53:45;;;;;;;12.70;7.57;;;11.80;99.90;;;;;;4736901;30;20285;-83
2022/10/09 10:56:27;;;;;;;11.77;8.03;;;11.90;99.90;;;;;;4751683;30;20589;-78
2022/10/09 10:59:20;;;;;;;11.87;7.73;;;11.90;99.90;;;;;;4737016;30;20684;-78
2022/10/09 11:02:28;;;;;;;11.37;7.80;;;11.80;99.90;;;;;;4720581;30;20213;-80
2022/10/09 11:05:10;;;;;;;12.07;7.53;;;11.80;99.90;;;;;;4715470;30;20685;-78
2022/10/09 11:07:55;;;;;;;10.47;7.80;;;11.90;99.90;;;;;;4701642;30;20216;-78
2022/10/09 11:10:53;;;;;;;10.27;7.63;;;11.70;99.90;;;;;;4715936;30;20310;-77
2022/10/09 11:13:38;;;;;;;10.13;6.63;;;11.70;99.90;;;;;;4701793;30;20640;-81
2022/10/09 11:16:42;;;;;;;11.03;6.90;;;11.90;99.90;;;;;;4701115;30;20214;-82
2022/10/09 11:19:28;;;;;;;10.90;7.03;;;11.90;99.90;;;;;;4715752;30;20217;-81
2022/10/09 11:22:25;;;;;;;10.23;6.57;;;12.00;99.90;;;;;;4712166;30;20724;-82
2022/10/09 11:25:12;;;;;;;9.67;6.50;;;11.90;99.90;;;;;;4740800;30;20254;-81
2022/10/09 11:28:24;;;;;;;8.50;6.07;;;11.90;99.90;;;;;;4753296;30;20795;-82
2022/10/09 11:31:05;;;;;;;10.07;6.70;;;11.90;99.90;;;;;;4753580;30;20714;-80
2022/10/09 11:33:57;;;;;;;11.30;7.10;;;12.00;99.90;;;;;;4753799;30;20208;-81
2022/10/09 11:36:50;;;;;;;10.90;7.10;;;12.10;99.90;;;;;;4753701;30;20200;-82
2022/10/09 11:39:23;;;;;;;12.13;7.57;;;12.00;99.90;;;;;;4753564;30;20200;-81
2022/10/09 11:41:58;;;;;;;13.13;7.87;;;12.20;99.90;;;;;;4764087;29;20266;-82
2022/10/09 11:44:48;;;;;;;13.43;8.00;;;12.10;99.90;;;;;;4773299;30;20651;-80
2022/10/09 11:47:30;;;;;;;13.10;7.90;;;11.80;99.90;;;;;;4772340;30;20291;-84
2022/10/09 11:53:28;;;;;;;10.60;7.40;;;11.60;99.90;;;;;;4768437;30;20213;-81
2022/10/09 11:56:17;;;;;;;9.57;6.93;;;11.70;99.90;;;;;;4770260;30;20705;-81
2022/10/09 11:59:03;;;;;;;10.43;6.63;;;11.80;99.90;;;;;;4769121;30;20212;-82
2022/10/09 12:01:46;;;;;;;13.07;7.70;;;12.10;99.90;;;;;;4754847;30;20205;-79
2022/10/09 12:04:14;;;;;;;7.97;5.90;;;12.10;99.90;;;;;;4739888;30;20720;-84
2022/10/09 12:06:59;;;;;;;9.93;5.70;;;12.20;99.90;;;;;;4756003;30;20204;-83
2022/10/09 12:09:40;;;;;;;7.07;4.87;;;12.80;99.90;;;;;;4754392;30;20690;-79
2022/10/09 12:12:20;;;;;;;9.63;5.17;;;13.00;99.90;;;;;;4770208;30;20204;-84
2022/10/09 12:14:50;;;;;;;6.87;4.80;;;12.90;99.90;;;;;;4769772;30;20706;-83
2022/10/09 12:17:21;;;;;;;8.30;5.00;;;13.10;99.90;;;;;;4770266;30;20213;-81
2022/10/09 12:19:54;;;;;;;7.20;4.40;;;13.10;99.90;;;;;;4770155;30;20203;-82
2022/10/09 12:22:43;;;;;;;7.60;4.40;;;13.00;99.90;;;;;;4770684;30;20659;-85
2022/10/09 12:25:41;;;;;;;6.67;4.43;;;12.80;99.90;;;;;;4754671;30;20258;-85
2022/10/09 12:28:28;;;;;;;7.47;3.63;;;13.00;99.90;;;;;;4770369;30;20207;-83
2022/10/09 12:31:02;;;;;;;6.23;3.73;;;12.90;99.90;;;;;;4770361;30;20201;-82
2022/10/09 12:34:18;;;;;;;7.50;3.70;;;13.00;99.90;;;;;;4754750;30;20208;-82
2022/10/09 12:36:37;;;;;;;6.30;3.33;;;13.10;99.90;;;;;;4768001;30;20212;-85
2022/10/09 12:39:13;;;;;;;5.23;3.00;;;12.90;99.90;;;;;;4754736;30;20213;-80
2022/10/09 12:41:50;;;;;;;5.70;3.07;;;12.80;99.90;;;;;;4754367;30;20266;-84
2022/10/09 12:44:31;;;;;;;4.33;2.70;;;12.80;99.90;;;;;;4754290;30;20554;-86
2022/10/09 12:47:02;;;;;;;4.10;2.67;;;12.80;99.90;;;;;;4754726;30;20271;-84
2022/10/09 12:49:32;;;;;;;5.07;3.00;;;12.60;99.90;;;;;;4769518;30;20212;-81
2022/10/09 12:52:02;;;;;;;3.83;2.70;;;12.60;99.90;;;;;;4769894;30;20761;-76
2022/10/09 12:54:30;;;;;;;4.57;3.47;;;12.80;99.90;;;;;;4753988;30;20492;-81
2022/10/09 12:57:03;;;;;;;5.43;3.40;;;12.70;99.90;;;;;;4769967;30;20667;-79
2022/10/09 12:59:33;;;;;;;7.20;4.17;;;12.80;99.90;;;;;;4754130;30;20205;-80
2022/10/09 13:02:01;;;;;;;7.17;3.53;;;12.90;99.90;;;;;;4769686;30;20215;-82
2022/10/09 13:04:31;;;;;;;6.60;3.87;;;12.90;99.90;;;;;;4753908;30;20232;-80
2022/10/09 13:07:18;;;;;;;6.87;3.77;;;12.90;99.90;;;;;;4769628;30;20197;-81
2022/10/09 13:09:48;;;;;;;8.10;3.63;;;12.90;99.90;;;;;;4770052;30;20625;-79
2022/10/09 13:12:24;;;;;;;6.23;3.70;;;13.00;99.90;;;;;;4754538;30;20553;-79
2022/10/09 13:14:51;;;;;;;6.80;4.40;;;12.90;99.90;;;;;;4755481;30;20676;-79
2022/10/09 13:17:33;;;;;;;8.17;4.30;;;12.80;99.90;;;;;;4773328;30;20200;-79
2022/10/09 13:20:11;;;;;;;9.20;4.10;;;12.90;99.90;;;;;;4756902;30;20300;-80
2022/10/09 13:22:38;;;;;;;7.47;4.40;;;12.80;99.90;;;;;;4756788;30;20204;-79
2022/10/09 13:25:09;;;;;;;6.80;4.43;;;12.70;99.90;;;;;;4773077;30;20208;-80
2022/10/09 13:27:38;;;;;;;7.53;4.33;;;12.60;99.90;;;;;;4757854;30;20300;-80
2022/10/09 13:30:06;;;;;;;6.20;4.53;;;12.40;99.90;;;;;;4756953;30;20193;-79
2022/10/09 13:32:32;;;;;;;7.80;4.50;;;12.50;99.90;;;;;;4757113;30;20541;-78
2022/10/09 13:34:59;;;;;;;8.87;4.80;;;12.60;99.90;;;;;;4772726;30;20208;-76
2022/10/09 13:37:26;;;;;;;8.33;4.50;;;12.70;99.90;;;;;;4756765;30;20201;-78
2022/10/09 13:39:55;;;;;;;6.77;4.00;;;12.80;99.90;;;;;;4755565;30;20251;-79
2022/10/09 13:42:25;;;;;;;8.10;4.20;;;12.90;99.90;;;;;;4771483;30;20201;-80
2022/10/09 13:44:53;;;;;;;7.27;4.13;;;12.90;99.90;;;;;;4756877;30;20228;-79
2022/10/09 13:47:20;;;;;;;8.10;4.10;;;12.80;99.90;;;;;;4756228;30;20205;-79
2022/10/09 13:49:50;;;;;;;7.13;4.20;;;12.90;99.90;;;;;;4756234;30;20266;-79
2022/10/09 13:52:17;;;;;;;15.00;7.70;;;12.80;99.90;;;;;;4756362;30;20252;-78
2022/10/09 13:54:44;;;;;;;7.53;4.43;;;12.80;99.90;;;;;;4755870;30;20209;-79
2022/10/09 13:57:32;;;;;;;7.40;4.17;;;12.80;99.90;;;;;;4772172;30;20629;-80
2022/10/09 14:00:09;;;;;;;8.47;4.50;;;12.80;99.90;;;;;;4756532;30;20229;-79
2022/10/09 14:02:36;;;;;;;11.37;4.47;;;12.80;99.90;;;;;;4781984;24;20204;-80
2022/10/09 14:05:04;;;;;;;7.33;4.70;;;12.90;99.90;;;;;;4773602;30;20572;-82
2022/10/09 14:07:30;;;;;;;7.87;4.37;;;13.00;99.90;;;;;;4789397;30;20204;-78
2022/10/09 14:09:58;;;;;;;7.90;4.50;;;13.00;99.90;;;;;;4788685;29;20586;-79
2022/10/09 14:12:25;;;;;;;7.77;4.43;;;12.90;99.90;;;;;;4774238;30;20234;-80
2022/10/09 14:14:53;;;;;;;6.90;4.60;;;12.90;99.90;;;;;;4773666;30;20232;-82
2022/10/09 14:17:29;;;;;;;9.63;5.03;;;12.90;99.90;;;;;;4774224;30;20299;-81
2022/10/09 14:19:56;;;;;;;9.70;4.60;;;12.80;99.90;;;;;;4774283;30;20749;-79
2022/10/09 14:22:23;;;;;;;9.63;4.53;;;12.70;99.90;;;;;;4774698;30;20209;-82
2022/10/09 14:24:50;;;;;;;8.33;5.53;;;12.60;99.90;;;;;;4777317;29;20219;-82
2022/10/09 14:27:16;;;;;;;9.40;5.10;;;12.60;99.90;;;;;;4775007;29;20227;-82
2022/10/09 14:29:43;;;;;;;8.07;4.80;;;12.60;99.90;;;;;;4789653;29;20261;-83
2022/10/09 14:32:10;;;;;;;7.33;4.90;;;12.60;99.90;;;;;;4773612;30;20204;-83
2022/10/09 14:34:37;;;;;;;9.63;4.80;;;12.40;99.90;;;;;;4773117;30;20633;-85
2022/10/09 14:37:04;;;;;;;9.97;5.10;;;12.30;99.90;;;;;;4775498;29;20246;-81
2022/10/09 14:39:45;;;;;;;8.80;4.60;;;12.20;99.90;;;;;;4778467;30;20682;-85
2022/10/09 14:42:12;;;;;;;7.53;5.03;;;12.20;99.90;;;;;;4789485;30;20251;-85
2022/10/09 14:44:41;;;;;;;10.67;5.43;;;12.00;99.90;;;;;;4773610;30;20232;-86
2022/10/09 14:47:08;;;;;;;9.93;5.17;;;12.10;99.90;;;;;;4772827;30;20214;-79
2022/10/09 14:49:35;;;;;;;9.93;5.13;;;12.10;99.90;;;;;;4772895;30;20298;-80
2022/10/09 14:52:01;;;;;;;11.70;5.37;;;12.10;99.90;;;;;;4758564;30;20299;-78
2022/10/09 14:54:28;;;;;;;9.30;4.83;;;12.00;99.90;;;;;;4773842;30;20613;-78
2022/10/09 14:56:55;;;;;;;9.27;4.97;;;12.00;99.90;;;;;;4789354;29;20261;-80
2022/10/09 14:59:23;;;;;;;8.83;4.80;;;12.00;99.90;;;;;;4773346;30;20211;-78
2022/10/09 15:01:50;;;;;;;10.07;5.07;;;12.00;99.90;;;;;;4773171;30;20201;-77
2022/10/09 15:04:20;;;;;;;9.00;5.10;;;11.80;99.90;;;;;;4773309;30;20240;-77
2022/10/09 15:06:46;;;;;;;10.67;6.00;;;11.90;99.90;;;;;;4773325;30;20192;-77
2022/10/09 15:09:13;;;;;;;11.20;6.17;;;11.90;99.90;;;;;;4772820;30;20208;-77
2022/10/09 15:11:40;;;;;;;10.10;5.43;;;11.80;99.90;;;;;;4773252;30;20203;-75
2022/10/09 15:14:07;;;;;;;9.10;4.97;;;11.70;99.90;;;;;;4789206;30;20212;-78
2022/10/09 15:16:34;;;;;;;10.27;5.27;;;11.70;99.90;;;;;;4771513;30;20220;-76
2022/10/09 15:19:03;;;;;;;9.17;4.87;;;11.60;99.90;;;;;;4772583;30;20219;-75
2022/10/09 15:21:32;;;;;;;11.47;4.83;;;11.60;99.90;;;;;;4781175;29;20690;-77
2022/10/09 15:24:00;;;;;;;12.37;5.70;;;11.60;99.90;;;;;;4777993;30;20686;-75
2022/10/09 15:26:31;;;;;;;9.97;5.40;;;11.60;99.90;;;;;;4788944;30;20205;-73
2022/10/09 15:29:03;;;;;;;10.37;5.47;;;11.50;99.90;;;;;;4772211;30;20213;-75
2022/10/09 15:31:36;;;;;;;8.40;5.00;;;11.40;99.90;;;;;;4772281;30;20269;-71
2022/10/09 15:34:04;;;;;;;11.10;5.70;;;11.40;99.90;;;;;;4772687;30;20200;-74
2022/10/09 15:36:34;;;;;;;10.80;5.67;;;11.30;99.90;;;;;;4772113;30;20196;-74
2022/10/09 15:39:04;;;;;;;12.17;6.20;;;11.30;99.90;;;;;;4771266;30;20219;-77
2022/10/09 15:41:33;;;;;;;10.23;5.93;;;11.30;99.90;;;;;;4787489;30;20200;-78
2022/10/09 15:44:06;;;;;;;12.60;6.63;;;11.20;99.90;;;;;;4788425;29;20306;-76
2022/10/09 15:46:33;;;;;;;10.13;6.50;;;11.20;99.90;;;;;;4786995;30;20208;-77
2022/10/09 15:49:00;;;;;;;12.10;6.77;;;11.10;99.90;;;;;;4786909;30;20212;-78
2022/10/09 15:51:31;;;;;;;11.57;6.30;;;11.10;99.90;;;;;;4787322;30;20310;-75
2022/10/09 15:54:00;;;;;;;12.80;6.20;;;11.00;99.90;;;;;;4786914;30;20292;-76
2022/10/09 15:56:28;;;;;;;13.87;6.40;;;11.00;99.90;;;;;;4787139;30;20205;-75
2022/10/09 15:58:57;;;;;;;13.17;6.53;;;10.90;99.90;;;;;;4786457;30;20678;-74
2022/10/09 16:01:30;;;;;;;12.53;6.60;;;10.80;99.90;;;;;;4776425;30;20208;-74
2022/10/09 16:03:57;;;;;;;15.70;6.80;;;10.80;99.90;;;;;;4771516;30;20669;-77
2022/10/09 16:06:24;;;;;;;10.87;6.17;;;10.80;99.90;;;;;;4772112;30;20196;-80
2022/10/09 16:08:55;;;;;;;11.80;6.40;;;10.80;99.90;;;;;;4772367;30;20208;-81
2022/10/09 16:11:22;;;;;;;11.33;6.27;;;10.70;99.90;;;;;;4772348;30;20208;-82
2022/10/09 16:13:53;;;;;;;13.80;7.00;;;10.60;99.90;;;;;;4772460;30;20554;-81
2022/10/09 16:16:23;;;;;;;12.57;6.90;;;10.60;99.90;;;;;;4777811;29;20228;-82
2022/10/09 16:18:50;;;;;;;12.60;6.50;;;10.50;99.90;;;;;;4787255;29;20199;-84
2022/10/09 16:21:35;;;;;;;11.67;6.93;;;10.40;99.90;;;;;;4771818;30;20581;-80
2022/10/09 16:24:02;;;;;;;12.83;6.90;;;10.40;99.90;;;;;;4784961;29;20224;-80
2022/10/09 16:30:39;;;;;;;12.27;7.00;;;10.30;99.90;;;;;;4770614;30;20276;-82
2022/10/09 16:33:07;;;;;;;12.63;6.77;;;10.20;99.90;;;;;;4772651;30;20205;-79
2022/10/09 16:35:38;;;;;;;11.97;6.60;;;10.20;99.90;;;;;;4772570;30;20227;-81
2022/10/09 16:38:05;;;;;;;11.53;6.90;;;10.20;99.90;;;;;;4772690;29;20582;-80
2022/10/09 16:40:32;;;;;;;12.17;6.93;;;10.10;99.90;;;;;;4772067;30;20216;-81
2022/10/09 16:43:19;;;;;;;14.40;6.97;;;10.10;99.90;;;;;;4772299;30;20200;-81
2022/10/09 16:45:46;;;;;;;13.87;7.10;;;10.10;99.90;;;;;;4772108;30;20243;-82
2022/10/09 16:48:14;;;;;;;13.50;6.90;;;9.90;99.90;;;;;;4772714;30;20208;-81
2022/10/09 16:50:42;;;;;;;13.87;7.43;;;9.90;99.90;;;;;;4780177;24;20241;-80